Time;durP1;ratioP1;P1;durP2;ratioP2;P2;SDS_P1;SDS_P2;PMS_P1;PMS_P2;Temp;Humidity;BMP_temperature;BMP_pressure;BME280_temperature;BME280_humidity;BME280_pressure;Samples;Min_cycle;Max_cycle;Signal;HPM_P1;HPM_P2
2022/12/14 00:00:55;;;;;;;11.55;6.28;;;;;;;0.06;52.74;99503.34;4177781;28;20037;-76
2022/12/14 00:02:58;;;;;;;13.07;8.13;;;;;;;-0.01;53.91;99502.25;4169808;28;20128;-76
2022/12/14 00:05:01;;;;;;;12.30;7.50;;;;;;;-0.01;53.41;99503.13;4166724;28;20037;-76
2022/12/14 00:07:04;;;;;;;12.82;8.43;;;;;;;0.06;54.25;99498.25;4179480;28;20087;-76
2022/12/14 00:09:07;;;;;;;15.73;8.65;;;;;;;0.02;54.19;99502.38;4174441;28;20477;-76
2022/12/14 00:11:13;;;;;;;14.15;8.60;;;;;;;-0.02;54.37;99509.03;4151246;28;20056;-75
2022/12/14 00:13:15;;;;;;;15.85;8.13;;;;;;;-0.14;54.94;99512.78;4166190;28;20128;-75
2022/12/14 00:15:19;;;;;;;15.00;9.15;;;;;;;-0.30;55.34;99506.16;4181220;28;20053;-75
2022/12/14 00:17:22;;;;;;;16.90;10.60;;;;;;;-0.45;56.15;99504.69;4167027;28;20111;-75
2022/12/14 00:19:25;;;;;;;16.67;9.77;;;;;;;-0.43;56.33;99502.22;4170957;28;20490;-76
2022/12/14 00:21:28;;;;;;;17.50;9.88;;;;;;;-0.34;55.81;99504.28;4166511;28;20380;-76
2022/12/14 00:23:31;;;;;;;15.63;9.48;;;;;;;-0.31;56.58;99492.50;4167149;28;20044;-76
2022/12/14 00:25:40;;;;;;;14.82;8.98;;;;;;;-0.23;56.37;99483.47;4176750;28;20156;-75
2022/12/14 00:27:44;;;;;;;15.27;10.52;;;;;;;-0.24;56.29;99470.66;4166804;28;20188;-75
2022/12/14 00:29:47;;;;;;;15.73;9.70;;;;;;;-0.19;56.00;99464.03;4166423;28;20080;-77
2022/12/14 00:31:51;;;;;;;17.35;9.30;;;;;;;-0.17;56.74;99466.69;4173636;28;20080;-76
2022/12/14 00:33:54;;;;;;;17.10;9.38;;;;;;;-0.17;56.18;99472.66;4167230;28;20041;-74
2022/12/14 00:35:57;;;;;;;17.73;9.90;;;;;;;-0.12;55.75;99458.38;4169740;28;20041;-75
2022/12/14 00:38:00;;;;;;;15.73;9.15;;;;;;;-0.15;55.76;99454.84;4168251;28;20087;-75
2022/12/14 00:40:03;;;;;;;15.73;9.25;;;;;;;-0.15;56.65;99450.59;4169830;28;20045;-75
2022/12/14 00:42:07;;;;;;;14.18;8.73;;;;;;;-0.12;56.29;99437.94;4174381;28;20087;-75
2022/12/14 00:44:09;;;;;;;16.90;9.45;;;;;;;-0.10;56.25;99440.53;4182443;28;20487;-75
2022/12/14 00:46:12;;;;;;;33.55;19.95;;;;;;;-0.20;56.37;99460.63;4174578;28;20037;-75
2022/12/14 00:48:18;;;;;;;19.10;11.00;;;;;;;-0.26;56.90;99454.41;4169910;28;20041;-75
2022/12/14 00:50:21;;;;;;;15.80;9.13;;;;;;;-0.24;56.38;99455.31;4177194;28;20037;-74
2022/12/14 00:52:24;;;;;;;15.27;9.00;;;;;;;-0.23;56.58;99447.72;4166403;28;20041;-74
2022/12/14 00:54:27;;;;;;;16.73;10.30;;;;;;;-0.20;57.15;99457.22;4164893;28;20077;-74
2022/12/14 00:56:30;;;;;;;17.45;10.32;;;;;;;-0.22;57.15;99449.47;4166447;28;20045;-74
2022/12/14 00:58:33;;;;;;;17.95;10.02;;;;;;;-0.17;56.69;99446.25;4172139;28;20380;-74
2022/12/14 01:00:36;;;;;;;16.48;10.30;;;;;;;-0.15;57.33;99449.72;4174840;28;20041;-74
2022/12/14 01:02:38;;;;;;;17.27;9.32;;;;;;;-0.14;56.71;99439.56;4181634;28;20068;-75
2022/12/14 01:04:43;;;;;;;16.92;10.27;;;;;;;-0.14;56.52;99426.78;4164973;28;20049;-74
2022/12/14 01:06:46;;;;;;;18.02;10.63;;;;;;;-0.12;56.69;99417.50;4163862;28;20099;-74
2022/12/14 01:08:49;;;;;;;20.95;12.00;;;;;;;-0.07;57.46;99420.25;4174518;28;20063;-75
2022/12/14 01:10:53;;;;;;;20.08;12.23;;;;;;;-0.04;56.87;99426.34;4170854;28;20036;-75
2022/12/14 01:12:56;;;;;;;18.83;11.30;;;;;;;-0.03;57.91;99425.56;4181213;28;20041;-75
2022/12/14 01:14:59;;;;;;;15.63;8.68;;;;;;;-0.01;58.03;99423.91;4166431;28;20091;-75
2022/12/14 01:17:02;;;;;;;14.18;8.65;;;;;;;0.02;56.76;99428.28;4177916;28;20044;-75
2022/12/14 01:19:04;;;;;;;14.68;8.45;;;;;;;0.02;56.84;99428.28;4176324;28;20063;-75
2022/12/14 01:21:14;;;;;;;15.60;8.77;;;;;;;0.03;57.31;99431.69;4174726;28;20068;-74
2022/12/14 01:23:16;;;;;;;14.43;9.25;;;;;;;0.02;57.42;99425.72;4177557;28;20052;-74
2022/12/14 01:25:20;;;;;;;14.88;9.23;;;;;;;0.04;57.01;99420.69;4167434;28;20033;-74
2022/12/14 01:27:22;;;;;;;13.82;8.75;;;;;;;0.11;57.39;99420.09;4171065;28;20088;-75
2022/12/14 01:29:25;;;;;;;19.30;9.88;;;;;;;0.12;57.33;99407.38;4172921;28;20041;-75
2022/12/14 01:31:30;;;;;;;13.13;8.57;;;;;;;0.11;56.99;99412.44;4181919;28;20041;-76
2022/12/14 01:33:33;;;;;;;;;;;;;;;-0.01;56.65;99417.94;4180923;28;20412;-76
2022/12/14 01:35:36;;;;;;;16.02;8.57;;;;;;;0.03;56.84;99411.25;4165451;28;19964;-75
2022/12/14 01:37:40;;;;;;;12.98;8.18;;;;;;;-0.02;56.85;99417.06;4160866;28;20030;-75
2022/12/14 01:39:43;;;;;;;12.35;7.22;;;;;;;-0.07;56.11;99413.47;4179182;28;20041;-76
2022/12/14 01:41:48;;;;;;;11.95;7.05;;;;;;;-0.06;56.39;99410.09;4176103;28;20087;-75
2022/12/14 01:43:54;;;;;;;15.63;8.48;;;;;;;-0.03;56.33;99407.66;4165425;28;20495;-74
2022/12/14 01:45:57;;;;;;;;;;;;;;;-0.05;55.87;99399.06;4166147;28;20118;-75
2022/12/14 01:48:03;;;;;;;14.55;7.60;;;;;;;0.00;56.11;99394.16;4173501;28;19921;-74
2022/12/14 01:50:14;;;;;;;12.63;7.75;;;;;;;0.11;55.81;99392.00;4174990;28;20104;-75
2022/12/14 01:52:22;;;;;;;11.48;6.35;;;;;;;0.13;55.96;99385.25;4181780;28;20036;-75
2022/12/14 01:54:29;;;;;;;11.10;7.13;;;;;;;0.12;55.59;99391.19;4180046;28;20068;-74
2022/12/14 01:56:35;;;;;;;11.65;5.90;;;;;;;0.15;55.27;99398.97;4175911;28;20045;-74
2022/12/14 01:58:39;;;;;;;12.05;7.43;;;;;;;0.19;56.08;99398.28;4180328;28;20106;-74
2022/12/14 02:00:43;;;;;;;11.23;6.55;;;;;;;0.21;55.79;99388.97;4179310;28;20049;-74
2022/12/14 02:02:51;;;;;;;11.82;6.63;;;;;;;0.21;56.04;99388.97;4165109;28;20037;-75
2022/12/14 02:04:57;;;;;;;12.75;8.82;;;;;;;0.19;56.38;99392.28;4164767;28;20053;-75
2022/12/14 02:07:00;;;;;;;13.23;8.10;;;;;;;0.08;56.65;99397.00;4164482;28;20033;-74
2022/12/14 02:09:05;;;;;;;17.67;9.63;;;;;;;0.01;57.32;99398.41;4164815;28;20041;-75
2022/12/14 02:11:10;;;;;;;13.82;8.30;;;;;;;-0.01;57.00;99394.94;4166535;28;20037;-75
2022/12/14 02:13:17;;;;;;;16.83;10.40;;;;;;;-0.01;57.92;99393.25;4169579;28;20045;-75
2022/12/14 02:15:20;;;;;;;17.67;9.65;;;;;;;-0.03;57.75;99386.34;4175474;28;20490;-75
2022/12/14 02:17:23;;;;;;;13.88;8.60;;;;;;;-0.03;57.64;99386.34;4173074;28;20104;-74
2022/12/14 02:19:26;;;;;;;15.18;10.15;;;;;;;-0.06;58.11;99386.22;4180120;28;20119;-75
2022/12/14 02:21:44;;;;;;;14.98;9.35;;;;;;;-0.09;58.47;99387.00;4178246;28;20387;-74
2022/12/14 02:24:07;;;;;;;15.77;9.20;;;;;;;-0.10;58.74;99390.34;4172571;28;20503;-74
2022/12/14 02:26:48;;;;;;;16.00;9.02;;;;;;;-0.18;58.86;99396.81;4167397;28;20034;-74
2022/12/14 02:29:25;;;;;;;18.63;10.15;;;;;;;-0.28;59.40;99381.94;4170170;28;20406;-74
2022/12/14 02:31:33;;;;;;;16.35;10.18;;;;;;;-0.26;59.23;99382.91;4178147;28;20453;-74
2022/12/14 02:33:47;;;;;;;16.10;10.93;;;;;;;-0.29;59.96;99377.63;4172053;28;20067;-73
2022/12/14 02:35:54;;;;;;;17.48;10.75;;;;;;;-0.25;60.19;99374.41;4173361;28;20045;-74
2022/12/14 02:38:07;;;;;;;17.08;10.15;;;;;;;-0.20;59.82;99372.91;4173668;28;20049;-74
2022/12/14 02:40:21;;;;;;;19.38;10.10;;;;;;;-0.10;59.77;99377.56;4163988;28;20499;-74
2022/12/14 02:42:31;;;;;;;17.20;10.38;;;;;;;-0.04;59.42;99362.47;4166261;28;20037;-75
2022/12/14 02:44:45;;;;;;;19.52;10.77;;;;;;;-0.06;59.67;99358.13;4173223;28;20044;-74
2022/12/14 02:46:56;;;;;;;16.05;9.73;;;;;;;-0.07;59.62;99353.84;4164380;28;20080;-74
2022/12/14 02:49:08;;;;;;;17.40;9.40;;;;;;;-0.09;60.56;99358.00;4179823;28;20075;-73
2022/12/14 02:51:37;;;;;;;16.35;10.00;;;;;;;-0.12;59.53;99351.09;4174495;28;20041;-73
2022/12/14 02:53:47;;;;;;;19.02;10.90;;;;;;;-0.11;60.58;99346.88;4170762;28;20071;-73
2022/12/14 02:55:52;;;;;;;17.98;10.43;;;;;;;-0.09;59.90;99351.22;4169964;28;20053;-74
2022/12/14 02:58:01;;;;;;;14.82;9.15;;;;;;;-0.03;60.14;99348.91;4169940;28;20480;-74
2022/12/14 03:00:07;;;;;;;17.92;9.98;;;;;;;0.03;60.25;99342.28;4166558;28;20033;-74
2022/12/14 03:02:13;;;;;;;17.35;9.80;;;;;;;0.04;59.80;99341.47;4172353;28;20033;-75
2022/12/14 03:04:16;;;;;;;15.40;9.48;;;;;;;0.08;59.70;99343.34;4178374;28;20045;-75
2022/12/14 03:06:25;;;;;;;16.13;10.82;;;;;;;0.10;59.55;99342.59;4173737;28;20474;-74
2022/12/14 03:08:33;;;;;;;13.60;8.45;;;;;;;0.10;60.01;99342.59;4180273;28;20051;-74
2022/12/14 03:10:42;;;;;;;18.38;10.23;;;;;;;-0.01;60.31;99342.16;4171279;28;20041;-74
2022/12/14 03:12:50;;;;;;;19.17;10.75;;;;;;;-0.07;59.96;99344.47;4170585;28;20033;-74
2022/12/14 03:14:56;;;;;;;15.98;9.85;;;;;;;-0.15;60.16;99338.19;4171010;28;20094;-75
2022/12/14 03:17:05;;;;;;;15.70;9.73;;;;;;;-0.17;59.71;99337.28;4164905;28;20045;-75
2022/12/14 03:19:15;;;;;;;16.90;10.43;;;;;;;-0.24;60.79;99345.50;4179942;28;20045;-74
2022/12/14 03:21:24;;;;;;;13.80;8.63;;;;;;;-0.28;60.28;99335.97;4175087;28;20525;-74
2022/12/14 03:23:34;;;;;;;16.75;9.13;;;;;;;-0.28;59.48;99338.53;4172972;28;20037;-75
2022/12/14 03:25:43;;;;;;;16.92;9.40;;;;;;;-0.24;60.51;99333.59;4168757;28;20498;-74
2022/12/14 03:27:51;;;;;;;15.77;8.93;;;;;;;-0.23;60.55;99342.16;4157850;28;20038;-74
2022/12/14 03:29:58;;;;;;;14.40;9.32;;;;;;;-0.21;59.78;99326.06;4175664;28;20060;-74
2022/12/14 03:32:08;;;;;;;15.23;9.32;;;;;;;-0.20;59.43;99327.81;4177527;28;20040;-74
2022/12/14 03:34:14;;;;;;;16.88;9.20;;;;;;;-0.18;59.38;99325.31;4164827;28;20041;-74
2022/12/14 03:36:25;;;;;;;14.60;8.00;;;;;;;-0.11;59.93;99317.06;4168484;28;20041;-74
2022/12/14 03:38:33;;;;;;;15.35;9.45;;;;;;;-0.13;59.09;99313.59;4168380;28;20047;-75
2022/12/14 03:40:42;;;;;;;16.08;10.02;;;;;;;-0.07;59.59;99308.72;4169894;28;20037;-74
2022/12/14 03:42:57;;;;;;;17.92;10.02;;;;;;;-0.07;59.39;99316.38;4175334;28;20154;-75
2022/12/14 03:45:07;;;;;;;13.80;8.85;;;;;;;-0.08;59.88;99314.63;4166899;28;20041;-75
2022/12/14 03:47:25;;;;;;;14.25;9.30;;;;;;;-0.06;60.40;99310.47;4175181;28;20041;-76
2022/12/14 03:49:40;;;;;;;13.73;8.80;;;;;;;-0.09;60.21;99301.81;4167098;28;20083;-75
2022/12/14 03:51:57;;;;;;;17.73;10.75;;;;;;;-0.03;60.17;99300.38;4174083;28;20465;-76
2022/12/14 03:54:07;;;;;;;17.42;9.70;;;;;;;-0.16;59.41;99312.59;4176448;28;20040;-76
2022/12/14 03:56:15;;;;;;;14.63;8.55;;;;;;;-0.19;60.08;99321.00;4183486;28;20041;-76
2022/12/14 03:58:37;;;;;;;14.68;8.73;;;;;;;-0.23;60.67;99311.50;4165740;28;20522;-76
2022/12/14 04:00:50;;;;;;;16.27;10.02;;;;;;;-0.20;59.82;99309.06;4173916;28;20530;-76
2022/12/14 04:03:07;;;;;;;15.32;9.32;;;;;;;-0.22;60.50;99301.34;4175143;28;20037;-76
2022/12/14 04:05:18;;;;;;;15.07;9.15;;;;;;;-0.14;59.85;99283.75;4176234;28;20052;-76
2022/12/14 04:07:25;;;;;;;16.13;8.93;;;;;;;-0.10;60.29;99293.28;4178346;28;20036;-76
2022/12/14 04:09:33;;;;;;;15.88;9.73;;;;;;;-0.07;60.79;99285.72;4182002;28;20045;-76
2022/12/14 04:19:02;;;;;;;13.23;9.13;;;;;;;-0.21;61.07;99272.41;4178995;28;20558;-76
2022/12/14 04:21:12;;;;;;;14.45;8.82;;;;;;;-0.17;61.99;99268.31;4178498;28;20103;-75
2022/12/14 04:26:03;;;;;;;16.55;8.63;;;;;;;-0.12;61.39;99269.34;4173619;28;20488;-75
2022/12/14 04:26:04;;;;;;;13.80;8.40;;;;;;;-0.05;61.18;99265.34;4166571;28;20049;-75
2022/12/14 04:29:54;;;;;;;19.33;10.77;;;;;;;0.04;60.37;99264.81;4173094;28;20049;-75
2022/12/14 04:30:39;;;;;;;16.88;9.55;;;;;;;0.07;60.95;99262.38;4167141;28;20046;-75
2022/12/14 04:32:47;;;;;;;18.45;9.43;;;;;;;0.04;60.88;99264.81;4176734;28;20041;-75
2022/12/14 04:34:59;;;;;;;13.77;8.45;;;;;;;-0.01;61.16;99257.84;4164953;28;20415;-75
2022/12/14 04:37:06;;;;;;;14.00;8.95;;;;;;;0.02;61.52;99266.47;4172241;28;20037;-76
2022/12/14 04:39:16;;;;;;;14.02;8.52;;;;;;;0.03;60.93;99268.16;4182576;28;20048;-75
2022/12/14 04:41:24;;;;;;;16.08;9.88;;;;;;;0.04;62.09;99267.38;4174650;28;20118;-75
2022/12/14 04:43:29;;;;;;;16.83;9.38;;;;;;;0.07;61.72;99270.91;4180112;28;20530;-76
2022/12/14 04:45:37;;;;;;;16.52;9.65;;;;;;;0.04;62.08;99272.47;4181802;28;20506;-75
2022/12/14 04:47:48;;;;;;;17.17;9.63;;;;;;;0.01;62.22;99274.94;4181048;28;20068;-76
2022/12/14 04:49:59;;;;;;;15.98;10.05;;;;;;;0.05;62.60;99277.66;4180133;28;20041;-75
2022/12/14 04:52:08;;;;;;;21.90;10.10;;;;;;;0.08;62.96;99276.91;4169455;28;20081;-76
2022/12/14 04:54:14;;;;;;;13.93;9.15;;;;;;;0.09;62.94;99271.84;4170930;28;20049;-75
2022/12/14 04:56:23;;;;;;;18.27;10.40;;;;;;;0.20;62.58;99271.34;4166345;28;20091;-75
2022/12/14 04:58:28;;;;;;;14.70;9.20;;;;;;;0.18;62.54;99268.75;4171368;28;20052;-75
2022/12/14 05:00:35;;;;;;;14.93;9.70;;;;;;;0.15;62.79;99269.50;4173405;28;20037;-76
2022/12/14 05:02:58;;;;;;;16.67;9.82;;;;;;;0.34;61.71;99267.63;4173243;28;20246;-76
2022/12/14 05:05:11;;;;;;;18.52;12.07;;;;;;;0.26;61.51;99267.31;4181146;28;20131;-75
2022/12/14 05:07:19;;;;;;;16.83;10.20;;;;;;;0.25;62.00;99260.50;4182149;28;20045;-76
2022/12/14 05:09:27;;;;;;;26.83;19.27;;;;;;;0.16;62.20;99249.91;4179549;28;20037;-75
2022/12/14 05:11:35;;;;;;;22.67;15.10;;;;;;;-0.11;62.40;99254.91;4170707;28;20045;-75
2022/12/14 05:14:00;;;;;;;20.67;14.93;;;;;;;-0.21;63.28;99256.22;4174975;28;20041;-77
2022/12/14 05:16:04;;;;;;;21.92;16.52;;;;;;;-0.16;63.98;99253.84;4177272;28;20047;-76
2022/12/14 05:18:07;;;;;;;18.10;12.05;;;;;;;-0.16;63.28;99254.75;4177186;28;20434;-76
2022/12/14 05:20:17;;;;;;;17.70;11.95;;;;;;;-0.20;63.60;99250.31;4167129;28;20064;-76
2022/12/14 05:22:20;;;;;;;18.70;11.57;;;;;;;-0.11;63.71;99253.22;4174041;28;20034;-76
2022/12/14 05:24:23;;;;;;;18.05;12.45;;;;;;;-0.08;64.08;99260.13;4165553;28;20184;-76
2022/12/14 05:26:26;;;;;;;15.80;10.70;;;;;;;-0.12;63.42;99259.13;4165781;28;20502;-75
2022/12/14 05:28:29;;;;;;;16.85;11.65;;;;;;;-0.12;63.64;99264.22;4165744;28;20095;-75
2022/12/14 05:30:31;;;;;;;17.17;11.20;;;;;;;-0.24;64.85;99262.09;4158901;28;20053;-75
2022/12/14 05:32:35;;;;;;;17.17;11.27;;;;;;;-0.23;63.89;99250.22;4178721;28;20521;-75
2022/12/14 05:34:38;;;;;;;19.35;12.15;;;;;;;-0.18;64.60;99243.56;4169547;28;20037;-76
2022/12/14 05:36:42;;;;;;;17.33;11.00;;;;;;;-0.15;64.29;99246.25;4181773;28;20056;-75
2022/12/14 05:38:45;;;;;;;18.40;11.30;;;;;;;0.03;64.30;99237.50;4182018;28;20120;-76
2022/12/14 05:40:48;;;;;;;18.42;13.13;;;;;;;0.07;64.04;99218.94;4174340;28;20053;-75
2022/12/14 05:42:51;;;;;;;21.55;12.55;;;;;;;0.13;63.55;99219.16;4165248;28;20495;-75
2022/12/14 05:44:57;;;;;;;19.58;12.57;;;;;;;0.07;63.38;99224.03;4165035;28;20045;-75
2022/12/14 05:47:00;;;;;;;17.10;11.63;;;;;;;-0.02;63.42;99238.22;4165159;28;20120;-75
2022/12/14 05:49:03;;;;;;;16.77;11.18;;;;;;;-0.05;64.49;99243.22;4147445;28;20042;-75
2022/12/14 05:51:07;;;;;;;17.08;11.38;;;;;;;-0.07;64.83;99228.66;4172914;28;20445;-75
2022/12/14 05:53:11;;;;;;;17.35;12.15;;;;;;;-0.04;64.49;99224.53;4174549;28;20045;-75
2022/12/14 05:55:14;;;;;;;18.23;11.93;;;;;;;-0.03;64.69;99230.50;4167455;28;20041;-74
2022/12/14 05:57:17;;;;;;;17.35;12.32;;;;;;;0.11;63.63;99231.00;4164460;28;20489;-75
2022/12/14 05:59:20;;;;;;;22.27;13.30;;;;;;;0.20;63.38;99218.56;4163235;28;20083;-75
2022/12/14 06:01:23;;;;;;;19.52;13.13;;;;;;;0.19;63.99;99216.84;4170371;28;20048;-75
2022/12/14 06:03:26;;;;;;;19.17;12.25;;;;;;;0.20;63.38;99205.78;4178118;28;20044;-75
2022/12/14 06:05:29;;;;;;;18.67;12.45;;;;;;;0.16;63.24;99206.47;4177481;28;20045;-75
2022/12/14 06:07:32;;;;;;;18.02;11.93;;;;;;;0.05;63.80;99213.78;4163517;28;20050;-75
2022/12/14 06:09:37;;;;;;;16.02;10.43;;;;;;;-0.02;64.12;99216.91;4179629;28;20245;-75
2022/12/14 06:11:41;;;;;;;17.83;11.32;;;;;;;-0.03;64.25;99215.16;4170272;28;20514;-75
2022/12/14 06:13:45;;;;;;;18.73;12.27;;;;;;;0.05;64.13;99200.13;4165462;28;20029;-74
2022/12/14 06:15:47;;;;;;;17.70;12.40;;;;;;;0.26;63.11;99193.19;4165519;28;20045;-76
2022/12/14 06:17:50;;;;;;;17.30;12.10;;;;;;;0.17;63.18;99195.44;4177076;28;20048;-76
2022/12/14 06:19:53;;;;;;;21.83;12.60;;;;;;;0.15;63.66;99186.88;4174588;28;20388;-76
2022/12/14 06:21:56;;;;;;;19.70;12.30;;;;;;;0.16;63.23;99175.81;4173174;28;20056;-75
2022/12/14 06:24:00;;;;;;;18.65;12.07;;;;;;;0.15;64.29;99166.44;4164391;28;20063;-74
2022/12/14 06:26:04;;;;;;;20.48;12.32;;;;;;;0.03;64.44;99165.97;4164699;28;20038;-75
2022/12/14 06:28:07;;;;;;;23.05;13.88;;;;;;;-0.19;64.98;99162.66;4178832;28;20041;-73
2022/12/14 06:30:11;;;;;;;20.98;13.07;;;;;;;-0.17;65.76;99165.28;4164727;28;20048;-73
2022/12/14 06:32:14;;;;;;;19.85;13.65;;;;;;;-0.13;66.58;99170.56;4177567;28;20052;-74
2022/12/14 06:34:18;;;;;;;18.75;13.02;;;;;;;-0.13;66.59;99170.56;4168337;28;20038;-75
2022/12/14 06:36:30;;;;;;;20.88;14.50;;;;;;;-0.01;66.28;99158.22;4172302;28;20044;-74
2022/12/14 06:38:35;;;;;;;20.67;13.98;;;;;;;-0.07;66.52;99154.59;4166558;28;20041;-75
2022/12/14 06:40:38;;;;;;;23.33;13.30;;;;;;;0.01;66.91;99154.84;4171265;28;20091;-75
2022/12/14 06:42:42;;;;;;;22.85;14.27;;;;;;;-0.05;66.34;99153.78;4163550;28;20045;-75
2022/12/14 06:44:45;;;;;;;21.90;15.45;;;;;;;-0.15;67.11;99144.06;4164170;28;20071;-75
2022/12/14 06:46:47;;;;;;;20.67;14.00;;;;;;;-0.18;67.38;99136.31;4168261;28;20083;-75
2022/12/14 06:48:51;;;;;;;25.40;15.15;;;;;;;-0.24;67.30;99126.72;4174447;28;20506;-75
2022/12/14 06:50:59;;;;;;;27.83;16.42;;;;;;;-0.12;67.84;99121.19;4171136;28;20042;-75
2022/12/14 06:53:02;;;;;;;25.08;15.43;;;;;;;-0.26;67.85;99130.06;4164406;28;20411;-75
2022/12/14 06:55:06;;;;;;;21.77;14.02;;;;;;;-0.31;68.65;99123.91;4169974;28;20037;-75
2022/12/14 06:57:09;;;;;;;23.90;15.27;;;;;;;-0.23;68.80;99118.25;4169509;28;20167;-75
2022/12/14 06:59:14;;;;;;;23.40;14.73;;;;;;;-0.44;68.65;99128.59;4165287;28;20319;-75
2022/12/14 07:01:20;;;;;;;23.45;13.85;;;;;;;-0.47;69.55;99122.50;4167968;28;20038;-75
2022/12/14 07:03:23;;;;;;;26.65;16.20;;;;;;;-0.33;69.44;99111.09;4170651;28;20048;-77
2022/12/14 07:05:26;;;;;;;25.50;15.77;;;;;;;-0.30;69.29;99123.97;4173555;28;20043;-77
2022/12/14 07:07:29;;;;;;;23.17;15.90;;;;;;;-0.36;68.17;99142.47;4163786;28;20403;-76
2022/12/14 07:09:31;;;;;;;25.90;15.77;;;;;;;-0.31;68.01;99136.69;4164164;28;20567;-76
2022/12/14 07:11:34;;;;;;;23.65;15.90;;;;;;;-0.44;69.33;99138.81;4163941;28;20107;-75
2022/12/14 07:13:38;;;;;;;22.27;15.25;;;;;;;-0.44;69.59;99131.16;4169876;28;20443;-76
2022/12/14 07:15:42;;;;;;;26.67;14.77;;;;;;;-0.36;69.14;99122.06;4163928;28;20029;-76
2022/12/14 07:17:45;;;;;;;25.27;15.00;;;;;;;-0.53;69.64;99120.56;4163972;28;20128;-76
2022/12/14 07:19:48;;;;;;;22.13;14.98;;;;;;;-0.63;69.37;99119.34;4164126;28;20041;-76
2022/12/14 07:21:51;;;;;;;21.70;13.95;;;;;;;-0.57;69.59;99121.28;4163066;28;20466;-75
2022/12/14 07:23:54;;;;;;;23.30;14.73;;;;;;;-0.56;70.33;99120.47;4179333;28;20041;-75
2022/12/14 07:26:01;;;;;;;22.23;15.15;;;;;;;-0.46;69.62;99130.19;4164016;28;20496;-76
2022/12/14 07:28:04;;;;;;;20.55;13.52;;;;;;;-0.47;69.17;99125.91;4164003;28;20041;-75
2022/12/14 07:30:08;;;;;;;27.30;17.08;;;;;;;-0.33;69.16;99134.06;4164458;28;20037;-76
2022/12/14 07:32:12;;;;;;;22.05;14.55;;;;;;;-0.31;68.70;99126.47;4175289;28;20411;-75
2022/12/14 07:34:15;;;;;;;27.05;16.00;;;;;;;-0.25;68.71;99124.13;4171699;28;20488;-75
2022/12/14 07:36:20;;;;;;;23.00;15.27;;;;;;;-0.31;68.44;99119.66;4163938;28;20123;-75
2022/12/14 07:38:23;;;;;;;22.92;15.48;;;;;;;-0.42;69.92;99111.63;4163951;28;20580;-75
2022/12/14 07:40:25;;;;;;;24.10;18.33;;;;;;;-0.41;69.55;99108.28;4151747;28;20488;-75
2022/12/14 07:42:28;;;;;;;24.65;16.95;;;;;;;-0.31;69.84;99100.94;4172049;28;20270;-76
2022/12/14 07:44:34;;;;;;;22.63;15.43;;;;;;;-0.30;69.35;99100.13;4163604;28;20053;-75
2022/12/14 07:46:37;;;;;;;23.30;16.45;;;;;;;-0.29;69.70;99102.72;4162690;28;20454;-75
2022/12/14 07:48:45;;;;;;;19.98;13.05;;;;;;;-0.28;69.83;99121.47;4162669;28;20523;-76
2022/12/14 07:50:48;;;;;;;21.70;14.63;;;;;;;-0.32;68.98;99122.16;4163286;28;20099;-75
2022/12/14 07:52:50;;;;;;;23.92;16.35;;;;;;;-0.33;69.28;99130.66;4172412;28;20048;-75
2022/12/14 07:54:53;;;;;;;26.08;15.63;;;;;;;-0.27;70.25;99136.84;4179961;28;20041;-75
2022/12/14 07:56:56;;;;;;;22.35;13.20;;;;;;;-0.21;69.11;99136.19;4180299;28;20041;-75
2022/12/14 07:59:00;;;;;;;22.90;16.15;;;;;;;-0.17;69.76;99132.09;4180201;28;20107;-75
2022/12/14 08:01:11;;;;;;;21.33;15.27;;;;;;;-0.07;69.10;99118.81;4171603;28;20046;-75
2022/12/14 08:03:14;;;;;;;21.48;14.98;;;;;;;0.01;68.37;99119.06;4171694;28;20037;-76
2022/12/14 08:05:19;;;;;;;24.77;16.13;;;;;;;-0.03;68.75;99116.41;4180163;28;20295;-76
2022/12/14 08:07:21;;;;;;;22.52;15.65;;;;;;;-0.06;69.15;99097.53;4180509;28;20057;-76
2022/12/14 08:09:24;;;;;;;23.63;16.38;;;;;;;0.01;68.26;99091.84;4177100;28;20044;-77
2022/12/14 08:11:27;;;;;;;22.50;13.95;;;;;;;-0.07;68.40;99094.13;4170749;28;20041;-76
2022/12/14 08:13:31;;;;;;;21.27;14.10;;;;;;;-0.05;69.25;99110.38;4178424;28;20404;-73
2022/12/14 08:15:37;;;;;;;22.02;14.07;;;;;;;-0.11;69.57;99111.88;4162523;28;20466;-75
2022/12/14 08:17:39;;;;;;;23.02;14.50;;;;;;;-0.09;69.17;99116.22;4163810;28;20438;-75
2022/12/14 08:19:42;;;;;;;22.48;15.55;;;;;;;-0.07;68.86;99113.72;4169531;28;20033;-75
2022/12/14 08:21:46;;;;;;;22.42;14.93;;;;;;;0.04;68.72;99116.63;4174725;28;20064;-75
2022/12/14 08:23:50;;;;;;;26.20;17.45;;;;;;;0.07;68.36;99119.28;4181537;28;20045;-75
2022/12/14 08:25:54;;;;;;;24.90;15.80;;;;;;;0.11;68.16;99123.69;4183513;28;20033;-75
2022/12/14 08:27:57;;;;;;;23.45;16.27;;;;;;;0.08;68.77;99131.25;4183023;28;20049;-75
2022/12/14 08:30:00;;;;;;;26.85;16.90;;;;;;;0.01;68.77;99132.72;4174965;28;20072;-75
2022/12/14 08:32:03;;;;;;;23.88;15.68;;;;;;;0.05;68.21;99137.13;4174417;28;20458;-75
2022/12/14 08:34:06;;;;;;;24.95;15.55;;;;;;;-0.08;69.15;99135.81;4182622;28;20040;-75
2022/12/14 08:36:11;;;;;;;24.42;17.10;;;;;;;-0.02;68.67;99143.69;4182920;28;20045;-76
2022/12/14 08:38:16;;;;;;;26.23;18.27;;;;;;;0.02;68.73;99136.16;4181001;28;20079;-75
2022/12/14 08:40:19;;;;;;;31.10;19.08;;;;;;;0.01;69.85;99119.06;4166262;28;20037;-76
2022/12/14 08:42:22;;;;;;;30.42;18.42;;;;;;;0.08;68.59;99128.69;4165073;28;20038;-76
2022/12/14 08:44:25;;;;;;;25.92;17.52;;;;;;;0.02;68.83;99120.81;4164669;28;20139;-75
2022/12/14 08:46:29;;;;;;;32.13;19.13;;;;;;;0.03;68.99;99125.09;4169794;28;20442;-74
2022/12/14 08:48:33;;;;;;;25.67;17.70;;;;;;;0.03;69.22;99127.66;4168541;28;20041;-75
2022/12/14 08:50:36;;;;;;;27.42;17.55;;;;;;;-0.07;69.87;99126.47;4179248;28;20036;-75
2022/12/14 08:52:38;;;;;;;27.88;19.35;;;;;;;-0.07;69.49;99123.94;4175763;28;20399;-74
2022/12/14 08:54:43;;;;;;;31.10;19.30;;;;;;;-0.11;70.15;99122.06;4165545;28;20522;-74
2022/12/14 08:56:46;;;;;;;27.95;19.30;;;;;;;-0.14;70.59;99115.16;4167763;28;20487;-74
2022/12/14 08:58:51;;;;;;;29.70;21.00;;;;;;;-0.13;70.55;99105.81;4175357;28;20124;-74
2022/12/14 09:01:01;;;;;;;34.90;21.85;;;;;;;-0.16;71.13;99104.03;4177553;28;20487;-74
2022/12/14 09:03:05;;;;;;;31.42;21.00;;;;;;;-0.26;71.59;99107.09;4165999;28;20403;-74
2022/12/14 09:05:08;;;;;;;35.17;20.80;;;;;;;-0.31;71.35;99099.25;4165613;28;20045;-74
2022/12/14 09:07:11;;;;;;;36.97;21.45;;;;;;;-0.03;70.49;99105.31;4168080;28;20045;-74
2022/12/14 09:09:14;;;;;;;35.78;20.27;;;;;;;-0.20;71.40;99117.50;4180688;28;20084;-74
2022/12/14 09:11:20;;;;;;;30.38;19.77;;;;;;;-0.29;71.84;99114.59;4165663;28;20125;-74
2022/12/14 09:13:23;;;;;;;35.00;21.75;;;;;;;-0.38;72.43;99116.03;4165598;28;20065;-74
2022/12/14 09:15:26;;;;;;;33.65;21.05;;;;;;;-0.40;71.88;99130.41;4169824;28;20039;-74
2022/12/14 09:17:28;;;;;;;31.45;20.95;;;;;;;-0.17;71.63;99132.09;4180426;28;20048;-76
2022/12/14 09:19:31;;;;;;;29.75;20.17;;;;;;;-0.14;71.02;99125.38;4171053;28;20048;-74
2022/12/14 09:21:34;;;;;;;31.73;20.98;;;;;;;-0.31;71.91;99124.78;4182553;28;20141;-77
2022/12/14 09:23:39;;;;;;;35.58;20.38;;;;;;;-0.32;72.45;99128.16;4161964;28;20041;-74
2022/12/14 09:25:42;;;;;;;32.10;21.02;;;;;;;-0.40;72.45;99132.97;4180851;28;20095;-73
2022/12/14 09:27:46;;;;;;;35.33;20.77;;;;;;;-0.34;72.97;99134.03;4168441;28;20120;-73
2022/12/14 09:29:49;;;;;;;33.47;21.33;;;;;;;-0.29;72.80;99133.38;4166249;28;20069;-74
2022/12/14 09:31:52;;;;;;;32.05;20.77;;;;;;;-0.22;71.90;99127.69;4179254;28;20091;-74
2022/12/14 09:33:56;;;;;;;35.83;22.40;;;;;;;-0.22;72.61;99114.91;4173199;28;20045;-76
2022/12/14 09:36:02;;;;;;;32.15;20.08;;;;;;;-0.18;72.16;99120.97;4175774;28;20099;-73
2022/12/14 09:38:05;;;;;;;32.65;19.10;;;;;;;-0.19;71.75;99114.13;4169709;28;20048;-71
2022/12/14 09:40:11;;;;;;;30.52;20.20;;;;;;;-0.16;71.78;99123.59;4168381;28;20048;-69
2022/12/14 09:42:29;;;;;;;28.98;20.02;;;;;;;-0.28;71.83;99113.81;4175916;28;20060;-70
2022/12/14 09:44:47;;;;;;;34.45;20.65;;;;;;;-0.19;72.33;99099.69;4163679;28;20103;-72
2022/12/14 09:46:58;;;;;;;39.42;20.98;;;;;;;-0.22;71.31;99108.91;4177686;28;20045;-73
2022/12/14 09:49:02;;;;;;;32.25;20.05;;;;;;;-0.28;71.77;99103.59;4181845;28;20065;-70
2022/12/14 09:51:05;;;;;;;35.45;21.50;;;;;;;-0.10;72.54;99106.81;4178502;28;20499;-73